Flight Track Log - Related Links

Times and Time Zones

All times are in EDT time to prevent confusion due to time zone crossing. See the PDT4314 flight status page for this flight to view local times or setup timezone preferences in your user account.

Time Position Orientation Groundspeed Altitude Reporting Facility
EDT Latitude Longitude Course Direction KTS MPH feet Rate Location/Type
Tue 06:13:00 PM 41.8345 -75.8577 153° Southeast  Level Estimated
Tue 06:14:00 PM 41.7816 -75.8405 161° South  Level Estimated
Tue 06:15:00 PM 41.7286 -75.8242 167° South  Level FlightAware Approximate
Tue 06:16:00 PM 41.6756 -75.8080 167° South  Level FlightAware Approximate
Tue 06:17:00 PM 41.6227 -75.7909 162° South  Level Estimated
Tue 06:18:00 PM 41.5703 -75.7718 165° South  Level FlightAware Approximate
Tue 06:19:00 PM 41.5178 -75.7528 165° South  Level FlightAware Approximate
Tue 06:20:00 PM 41.4653 -75.7338 165° South  Level FlightAware Approximate
Tue 06:21:00 PM 41.4128 -75.7148 165° South  Level FlightAware Approximate
Tue 06:22:00 PM 41.3599 -75.6982 159° South  Level Estimated
Tue 06:23:00 PM 41.3070 -75.6815 163° South  Level Estimated
Tue 06:24:00 PM 41.2549 -75.6609 163° South  Level FlightAware Approximate
Tue 06:25:00 PM 41.2028 -75.6403 163° South  Level FlightAware Approximate
Tue 06:26:00 PM 41.1506 -75.6198 163° South  Level FlightAware Approximate
Tue 06:27:00 PM 41.0985 -75.5993 163° South  Level FlightAware Approximate
Tue 06:28:00 PM 41.0455 -75.5835 190° South  Level Estimated
Tue 06:29:00 PM 40.9915 -75.5751 173° South  Level FlightAware Approximate
Tue 06:30:00 PM 40.9374 -75.5668 173° South  Level FlightAware Approximate
Tue 06:30:59 PM 40.7500 -75.6000 180° South 254 292 6,000  Level Philadelphia TRACON
Tue 06:31:00 PM 40.8834 -75.5585 173° South  Level FlightAware Approximate
Tue 06:31:41 PM 40.7000 -75.6000 180° South 240 276 5,400  Level Philadelphia TRACON
Tue 06:32:00 PM 40.8306 -75.5417 187° South  Level Estimated
Tue 06:32:47 PM 40.6333 -75.5833 169° South 235 270 5,000  Level Philadelphia TRACON
Tue 06:33:00 PM 40.7681 -75.5380 177° South  Level FlightAware Approximate
Tue 06:33:47 PM 40.5667 -75.5833 180° South 230 265 5,000  Level Philadelphia TRACON
Tue 06:34:00 PM 40.7075 -75.5177 190° South  Level Estimated
Tue 06:34:47 PM 40.5000 -75.5833 180° South 227 261 5,000  Level Philadelphia TRACON
Tue 06:35:00 PM 40.6451 -75.5221 183° South  Level FlightAware Approximate
Tue 06:35:48 PM 40.4500 -75.5333 143° Southeast 230 265 5,000  Level Philadelphia TRACON
Tue 06:36:00 PM 40.5848 -75.5000 180° South  Level Estimated
Tue 06:36:48 PM 40.4000 -75.5000 153° Southeast 227 261 5,000  Level Philadelphia TRACON
Tue 06:37:48 PM 40.3500 -75.4500 143° Southeast 229 264 5,000  Level Philadelphia TRACON
Tue 06:38:54 PM 40.2833 -75.4000 150° Southeast 230 265 5,000 -429 Level Philadelphia TRACON
Tue 06:39:54 PM 40.2333 -75.3500 143° Southeast 235 270 4,100 -526 Descending Philadelphia TRACON
Tue 06:40:48 PM 40.1833 -75.3167 153° Southeast 205 236 4,000 -53 Descending Philadelphia TRACON
Tue 06:41:48 PM 40.1333 -75.2833 153° Southeast 202 232 4,000  Level Philadelphia TRACON
Tue 06:42:54 PM 40.0667 -75.2833 180° South 193 222 4,000  Level Philadelphia TRACON
Tue 06:43:54 PM 40.0167 -75.2833 180° South 193 222 4,000  Level Philadelphia TRACON
Tue 06:44:54 PM 40.0000 -75.2167 108° East 205 236 4,000  Level Philadelphia TRACON
Tue 06:45:55 PM 40.0000 -75.1333 90° East 216 249 4,000 -248 Level Philadelphia TRACON
Tue 06:46:55 PM 40.0000 -75.0667 90° East 207 238 3,500 -500 Descending Philadelphia TRACON
Tue 06:47:55 PM 40.0000 -75.0000 90° East 197 227 3,000 -286 Descending Philadelphia TRACON
Tue 06:49:01 PM 39.9500 -75.0000 180° South 198 228 2,900 -288 Descending Philadelphia TRACON
Tue 06:50:00 PM 39.9167 -75.0500 229° Southwest 163 188 2,400 -421 Descending Philadelphia TRACON
Tue 06:50:55 PM 39.9167 -75.1000 270° West 148 170 2,100 -595 Descending Philadelphia TRACON
Tue 06:52:01 PM 39.9000 -75.1500 247° West 122 140 1,200 -750 Descending Philadelphia TRACON
Tue 06:52:55 PM 39.8833 -75.1833 237° Southwest 120 138 600 -667 Descending Philadelphia TRACON

Login

Don't have an account? Register now (free) for customized features, flight alerts, and more!